createdAt,value
2019-04-22T00:00:08.728Z,31
2019-04-22T00:16:30.591Z,32
2019-04-22T00:31:26.542Z,32
2019-04-22T00:46:00.925Z,31
2019-04-22T01:01:36.593Z,31
2019-04-22T01:30:45.870Z,31
2019-04-22T01:46:15.786Z,31
2019-04-22T02:01:36.914Z,30
2019-04-22T02:16:27.177Z,30
2019-04-22T02:32:38.541Z,31
2019-04-22T02:47:15.116Z,33
2019-04-22T03:01:40.994Z,32
2019-04-22T03:16:56.916Z,31
2019-04-22T04:02:21.164Z,30
2019-04-22T04:16:38.567Z,30
2019-04-22T04:31:32.135Z,30
2019-04-22T04:47:11.167Z,31
2019-04-22T05:01:51.896Z,30
2019-04-22T05:17:01.973Z,31
2019-04-22T05:31:51.256Z,31
2019-04-22T05:46:02.371Z,32
2019-04-22T06:02:10.925Z,31
2019-04-22T06:16:08.780Z,33
2019-04-22T06:31:02.296Z,32
2019-04-22T06:46:26.971Z,33
2019-04-22T07:01:24.073Z,34
2019-04-22T07:16:43.043Z,35
2019-04-22T07:31:42.349Z,34
2019-04-22T07:46:25.810Z,34
2019-04-22T08:01:30.367Z,36
2019-04-22T08:16:36.412Z,38
2019-04-22T08:31:35.091Z,38
2019-04-22T09:01:37.555Z,35
2019-04-22T09:16:37.128Z,35
2019-04-22T09:31:35.177Z,34
2019-04-22T09:46:20.983Z,34
2019-04-22T10:16:47.755Z,32
2019-04-22T10:31:23.427Z,32
2019-04-22T10:45:06.185Z,32
2019-04-22T11:00:05.096Z,31
2019-04-22T11:15:05.729Z,31
2019-04-22T11:30:06.029Z,34
2019-04-22T11:45:05.815Z,34
2019-04-22T12:00:05.145Z,33
2019-04-22T12:15:06.566Z,32
2019-04-22T12:30:05.170Z,32
2019-04-22T12:45:04.481Z,32
2019-04-22T13:00:05.733Z,32
2019-04-22T13:15:08.057Z,34
2019-04-22T13:30:08.135Z,34
2019-04-22T13:45:05.047Z,32
2019-04-22T14:00:11.407Z,32
2019-04-22T14:15:04.479Z,32
2019-04-22T14:30:06.594Z,32
2019-04-22T14:46:32.903Z,33
2019-04-22T15:00:06.272Z,33
2019-04-22T15:15:05.953Z,34
2019-04-22T15:30:07.438Z,34
2019-04-22T15:45:11.498Z,35
2019-04-22T16:00:51.511Z,34
2019-04-22T16:15:11.578Z,36
2019-04-22T16:30:05.652Z,35
2019-04-22T16:45:05.664Z,36
2019-04-22T17:00:04.880Z,36
2019-04-22T17:15:15.987Z,39
2019-04-22T17:30:06.640Z,36
2019-04-22T17:46:18.832Z,36
2019-04-22T18:16:29.270Z,35
2019-04-22T18:46:31.304Z,36
2019-04-22T19:00:10.774Z,36
2019-04-22T19:45:51.633Z,34
2019-04-22T20:00:41.595Z,38
2019-04-22T20:15:50.485Z,33
2019-04-22T20:31:18.347Z,33
2019-04-22T21:00:55.463Z,35
2019-04-22T21:16:32.695Z,33
2019-04-22T21:31:23.141Z,32
2019-04-22T21:46:08.000Z,33
2019-04-22T22:16:14.162Z,31
2019-04-22T22:31:34.371Z,31
2019-04-22T22:45:41.232Z,32
2019-04-22T23:15:54.921Z,31
2019-04-22T23:30:35.786Z,32
2019-04-22T23:46:02.154Z,31
